Terminal Aerodrome Forecast
Issued by NWS Green Bay, WI

Home | Current Version | Previous Version | Graphics & Text | Print | Product List | Glossary On
Versions: 1 2 3 4 5 6 7 8 9 10 11 12 13 14 15 16 17 18 19 20 21 22 23 24 25 26 27 28 29
000
FTUS43 KGRB 152300
TAFGRB
TAF
KGRB 152331Z 1600/1624 26007KT P6SM SCT060
     FM160300 VRB03KT P6SM BKN200
     FM160800 13005KT P6SM BKN120
     FM161400 13013G23KT 4SM -SN SCT030 OVC050
      TEMPO 1614/1618 -RASN
     FM161800 14016G26KT P6SM SCT050 BKN100=

USA.gov is the U.S. government's official web portal to all federal, state and local government web resources and services.